Rio Hondo, Texas
Current Conditions -  °F | °C
As of 8:52 AM on Friday 31 Oct 2014 (Local Time) from KHRL Reporting Station
Haze Haze  
Wind Chill: 21°   Ceiling: Unl
Heat Index: 21°   Visibility: 3mi
Dew Point: 20°   Wind: 5mph
Humidity: 96%   Direction: 330°NNW
Pressure: 30.12"   Gusts: NA
Location:  26.24°N, 97.58°W
Report Text: KHRL 311352Z 33004KT 3SM BR CLR 21/20 A3012 RMK AO2 SLP200 T02060200
Loading
Personal Weather Stations






























Interactive Weather Map
Tropical Storm Tracking
New forecast layout! Learn more

10-Day Weather Forecast

Advertisements
Track Severe Weather on mobile